Time,TemperatureF,DewpointF,PressureIn,WindDirection,WindDirectionDegrees,WindSpeedMPH,WindSpeedGustMPH,Humidity,HourlyPrecipIn,Conditions,Clouds,dailyrainin,SolarRadiationWatts/m^2,SoftwareType,DateUTC
2013-03-13 00:12:00,29.0,19.0,-100.00,SW,225,4.0,7.0,66,0.00,,,0.00,0.000000,,2013-03-13 06:12:00,
2013-03-13 00:22:00,29.0,19.0,-100.00,SW,225,4.0,7.0,66,0.00,,,0.00,0.000000,,2013-03-13 06:22:00,
2013-03-13 00:32:00,29.0,19.0,-100.00,SW,225,4.0,7.0,66,0.00,,,0.00,0.000000,,2013-03-13 06:32:00,
2013-03-13 00:42:00,29.0,19.0,-100.00,SW,225,4.0,7.0,66,0.00,,,0.00,0.000000,,2013-03-13 06:42:00,
2013-03-13 01:12:00,28.0,19.0,-100.00,WSW,237,5.0,8.0,69,0.00,,,0.00,0.000000,,2013-03-13 07:12:00,
2013-03-13 01:22:00,28.0,19.0,-100.00,WSW,237,5.0,8.0,69,0.00,,,0.00,0.000000,,2013-03-13 07:22:00,
2013-03-13 01:32:00,28.0,19.0,-100.00,WSW,237,5.0,8.0,69,0.00,,,0.00,0.000000,,2013-03-13 07:32:00,
2013-03-13 01:42:00,28.0,19.0,-100.00,WSW,237,5.0,8.0,69,0.00,,,0.00,0.000000,,2013-03-13 07:42:00,
2013-03-13 02:12:00,29.0,19.0,-100.00,West,263,7.0,9.0,66,0.00,,,0.00,0.000000,,2013-03-13 08:12:00,
2013-03-13 02:22:00,29.0,19.0,-100.00,West,263,7.0,9.0,66,0.00,,,0.00,0.000000,,2013-03-13 08:22:00,
2013-03-13 02:32:00,29.0,19.0,-100.00,West,263,7.0,9.0,66,0.00,,,0.00,0.000000,,2013-03-13 08:32:00,
2013-03-13 02:42:00,29.0,19.0,-100.00,West,263,7.0,9.0,66,0.00,,,0.00,0.000000,,2013-03-13 08:42:00,
2013-03-13 03:12:00,27.0,19.0,-100.00,WSW,243,6.0,9.0,70,0.00,,,0.00,0.000000,,2013-03-13 09:12:00,
2013-03-13 03:22:00,27.0,19.0,-100.00,WSW,243,6.0,9.0,70,0.00,,,0.00,0.000000,,2013-03-13 09:22:00,
2013-03-13 03:32:00,27.0,19.0,-100.00,WSW,243,6.0,9.0,70,0.00,,,0.00,0.000000,,2013-03-13 09:32:00,
2013-03-13 03:42:00,27.0,19.0,-100.00,WSW,243,6.0,9.0,70,0.00,,,0.00,0.000000,,2013-03-13 09:42:00,
2013-03-13 04:11:00,27.0,17.0,-100.00,SW,232,4.0,7.0,65,0.00,,,0.00,0.000000,,2013-03-13 10:11:00,
2013-03-13 04:22:00,27.0,17.0,-100.00,SW,232,4.0,7.0,65,0.00,,,0.00,0.000000,,2013-03-13 10:22:00,
2013-03-13 04:32:00,27.0,17.0,-100.00,SW,232,4.0,7.0,65,0.00,,,0.00,0.000000,,2013-03-13 10:32:00,
2013-03-13 04:42:00,27.0,17.0,-100.00,SW,232,4.0,7.0,65,0.00,,,0.00,0.000000,,2013-03-13 10:42:00,
2013-03-13 05:12:00,26.0,18.0,-100.00,West,259,3.0,7.0,71,0.00,,,0.00,0.000000,,2013-03-13 11:12:00,
2013-03-13 05:22:00,26.0,18.0,-100.00,West,259,3.0,7.0,71,0.00,,,0.00,0.000000,,2013-03-13 11:22:00,
2013-03-13 05:32:00,26.0,18.0,-100.00,West,259,3.0,7.0,71,0.00,,,0.00,0.000000,,2013-03-13 11:32:00,
2013-03-13 05:42:00,26.0,18.0,-100.00,West,259,3.0,7.0,71,0.00,,,0.00,0.000000,,2013-03-13 11:42:00,
2013-03-13 06:12:00,26.0,17.0,-100.00,WSW,251,3.0,6.0,69,0.00,,,0.00,0.000000,,2013-03-13 12:12:00,
2013-03-13 06:22:00,26.0,17.0,-100.00,WSW,251,3.0,6.0,69,0.00,,,0.00,0.000000,,2013-03-13 12:22:00,
2013-03-13 06:32:00,26.0,17.0,-100.00,WSW,251,3.0,6.0,69,0.00,,,0.00,0.000000,,2013-03-13 12:32:00,
2013-03-13 06:42:00,26.0,17.0,-100.00,WSW,251,3.0,6.0,69,0.00,,,0.00,0.000000,,2013-03-13 12:42:00,
2013-03-13 07:11:00,23.0,14.0,-100.00,SW,226,5.0,7.0,68,0.00,,,0.00,0.000000,,2013-03-13 13:11:00,
2013-03-13 07:22:00,23.0,14.0,-100.00,SW,226,5.0,7.0,68,0.00,,,0.00,0.000000,,2013-03-13 13:22:00,
2013-03-13 07:32:00,23.0,14.0,-100.00,SW,226,5.0,7.0,68,0.00,,,0.00,0.000000,,2013-03-13 13:32:00,
2013-03-13 07:42:00,23.0,14.0,-100.00,SW,226,5.0,7.0,68,0.00,,,0.00,0.000000,,2013-03-13 13:42:00,
2013-03-13 08:12:00,28.0,20.0,-100.00,SW,225,1.0,6.0,70,0.00,,,0.00,9.000000,,2013-03-13 14:12:00,
2013-03-13 08:21:00,28.0,20.0,-100.00,SW,225,1.0,6.0,70,0.00,,,0.00,9.000000,,2013-03-13 14:21:00,
2013-03-13 08:42:00,28.0,20.0,-100.00,SW,225,1.0,6.0,70,0.00,,,0.00,9.000000,,2013-03-13 14:42:00,
2013-03-13 09:12:00,30.0,20.0,-100.00,SW,222,7.0,10.0,65,0.00,,,0.00,181.000000,,2013-03-13 15:12:00,
2013-03-13 09:22:00,30.0,20.0,-100.00,SW,222,7.0,10.0,65,0.00,,,0.00,181.000000,,2013-03-13 15:22:00,
2013-03-13 09:32:00,30.0,20.0,-100.00,SW,222,7.0,10.0,65,0.00,,,0.00,181.000000,,2013-03-13 15:32:00,
2013-03-13 09:42:00,30.0,20.0,-100.00,SW,222,7.0,10.0,65,0.00,,,0.00,181.000000,,2013-03-13 15:42:00,
2013-03-13 10:12:00,33.0,21.0,-100.00,SW,224,7.0,8.0,60,-99.99,,,0.00,407.000000,,2013-03-13 16:12:00,
2013-03-13 10:22:00,33.0,21.0,-100.00,SW,224,7.0,8.0,60,-99.99,,,0.00,407.000000,,2013-03-13 16:22:00,
2013-03-13 10:32:00,33.0,21.0,-100.00,SW,224,7.0,8.0,60,-99.99,,,0.00,407.000000,,2013-03-13 16:32:00,
2013-03-13 10:42:00,33.0,21.0,-100.00,SW,224,7.0,8.0,60,-99.99,,,0.00,407.000000,,2013-03-13 16:42:00,
2013-03-13 11:12:00,38.0,22.0,-100.00,WSW,257,5.0,8.0,52,0.00,,,0.00,658.000000,,2013-03-13 17:12:00,
2013-03-13 11:22:00,38.0,22.0,-100.00,WSW,257,5.0,8.0,52,0.00,,,0.00,658.000000,,2013-03-13 17:22:00,
2013-03-13 11:32:00,38.0,22.0,-100.00,WSW,257,5.0,8.0,52,0.00,,,0.00,658.000000,,2013-03-13 17:32:00,
2013-03-13 11:42:00,38.0,22.0,-100.00,WSW,257,5.0,8.0,52,0.00,,,0.00,658.000000,,2013-03-13 17:42:00,
2013-03-13 12:12:00,39.0,21.0,-100.00,West,276,7.0,13.0,48,0.00,,,0.00,829.000000,,2013-03-13 18:12:00,
2013-03-13 12:22:00,39.0,21.0,-100.00,West,276,7.0,13.0,48,0.00,,,0.00,829.000000,,2013-03-13 18:22:00,
2013-03-13 12:32:00,39.0,21.0,-100.00,West,276,7.0,13.0,48,0.00,,,0.00,829.000000,,2013-03-13 18:32:00,
2013-03-13 12:42:00,39.0,21.0,-100.00,West,276,7.0,13.0,48,0.00,,,0.00,829.000000,,2013-03-13 18:42:00,
2013-03-13 13:12:00,44.0,21.0,-100.00,WNW,300,6.0,11.0,40,0.00,,,0.00,1004.000000,,2013-03-13 19:12:00,
2013-03-13 13:22:00,44.0,21.0,-100.00,WNW,300,6.0,11.0,40,0.00,,,0.00,1004.000000,,2013-03-13 19:22:00,
2013-03-13 13:32:00,44.0,21.0,-100.00,WNW,300,6.0,11.0,40,0.00,,,0.00,1004.000000,,2013-03-13 19:32:00,
2013-03-13 13:42:00,44.0,21.0,-100.00,WNW,300,6.0,11.0,40,0.00,,,0.00,1004.000000,,2013-03-13 19:42:00,
2013-03-13 14:02:00,46.0,21.0,-100.00,WNW,300,6.0,10.0,36,0.00,,,0.00,1047.000000,,2013-03-13 20:02:00,
2013-03-13 14:12:00,46.0,21.0,-100.00,WNW,300,6.0,10.0,36,0.00,,,0.00,1047.000000,,2013-03-13 20:12:00,
2013-03-13 14:22:00,46.0,21.0,-100.00,WNW,300,6.0,10.0,36,0.00,,,0.00,1047.000000,,2013-03-13 20:22:00,
2013-03-13 14:32:00,46.0,21.0,-100.00,WNW,300,6.0,10.0,36,0.00,,,0.00,1047.000000,,2013-03-13 20:32:00,
2013-03-13 14:41:00,46.0,21.0,-100.00,WNW,300,6.0,10.0,36,0.00,,,0.00,1047.000000,,2013-03-13 20:41:00,
2013-03-13 15:12:00,46.0,20.0,-100.00,NW,304,7.0,12.0,35,0.00,,,0.00,1009.000000,,2013-03-13 21:12:00,
2013-03-13 15:22:00,46.0,20.0,-100.00,NW,304,7.0,12.0,35,0.00,,,0.00,1009.000000,,2013-03-13 21:22:00,
2013-03-13 15:32:00,46.0,20.0,-100.00,NW,304,7.0,12.0,35,0.00,,,0.00,1009.000000,,2013-03-13 21:32:00,
2013-03-13 15:41:00,46.0,20.0,-100.00,NW,304,7.0,12.0,35,0.00,,,0.00,1009.000000,,2013-03-13 21:41:00,
2013-03-13 16:12:00,45.0,18.0,-100.00,WNW,299,8.0,16.0,34,0.00,,,0.00,860.000000,,2013-03-13 22:12:00,
2013-03-13 16:22:00,45.0,18.0,-100.00,WNW,299,8.0,16.0,34,0.00,,,0.00,860.000000,,2013-03-13 22:22:00,
2013-03-13 16:32:00,45.0,18.0,-100.00,WNW,299,8.0,16.0,34,0.00,,,0.00,860.000000,,2013-03-13 22:32:00,
2013-03-13 16:42:00,45.0,18.0,-100.00,WNW,299,8.0,16.0,34,0.00,,,0.00,860.000000,,2013-03-13 22:42:00,
2013-03-13 17:12:00,44.0,19.0,-100.00,WNW,289,8.0,15.0,37,0.00,,,0.00,678.000000,,2013-03-13 23:12:00,
2013-03-13 17:22:00,44.0,19.0,-100.00,WNW,289,8.0,15.0,37,0.00,,,0.00,678.000000,,2013-03-13 23:22:00,
2013-03-13 17:32:00,44.0,19.0,-100.00,WNW,289,8.0,15.0,37,0.00,,,0.00,678.000000,,2013-03-13 23:32:00,
2013-03-13 18:12:00,40.0,15.0,-100.00,WNW,303,6.0,14.0,36,0.00,,,0.00,384.000000,,2013-03-14 00:12:00,
2013-03-13 18:22:00,40.0,15.0,-100.00,WNW,303,6.0,14.0,36,0.00,,,0.00,384.000000,,2013-03-14 00:22:00,
2013-03-13 19:12:00,37.0,16.0,-100.00,WNW,302,7.0,13.0,41,0.00,,,0.00,119.000000,,2013-03-14 01:12:00,
2013-03-13 19:22:00,37.0,16.0,-100.00,WNW,302,7.0,13.0,41,0.00,,,0.00,119.000000,,2013-03-14 01:22:00,
2013-03-13 19:42:00,37.0,16.0,-100.00,WNW,302,7.0,13.0,41,0.00,,,0.00,119.000000,,2013-03-14 01:42:00,
2013-03-13 20:12:00,37.0,17.0,-100.00,NW,315,5.0,13.0,44,0.00,,,0.00,9.000000,,2013-03-14 02:12:00,
2013-03-13 20:22:00,37.0,17.0,-100.00,NW,315,5.0,13.0,44,0.00,,,0.00,9.000000,,2013-03-14 02:22:00,
2013-03-13 20:32:00,37.0,17.0,-100.00,NW,315,5.0,13.0,44,0.00,,,0.00,9.000000,,2013-03-14 02:32:00,
2013-03-13 20:42:00,37.0,17.0,-100.00,NW,315,5.0,13.0,44,0.00,,,0.00,9.000000,,2013-03-14 02:42:00,
2013-03-13 21:12:00,36.0,18.0,-100.00,NW,304,6.0,11.0,47,0.00,,,0.00,0.000000,,2013-03-14 03:12:00,
2013-03-13 21:22:00,36.0,18.0,-100.00,NW,304,6.0,11.0,47,0.00,,,0.00,0.000000,,2013-03-14 03:22:00,
2013-03-13 21:32:00,36.0,18.0,-100.00,NW,304,6.0,11.0,47,0.00,,,0.00,0.000000,,2013-03-14 03:32:00,
2013-03-13 21:42:00,36.0,18.0,-100.00,NW,304,6.0,11.0,47,0.00,,,0.00,0.000000,,2013-03-14 03:42:00,
2013-03-13 22:12:00,33.0,15.0,-100.00,SSW,200,5.0,9.0,48,0.00,,,0.00,0.000000,,2013-03-14 04:12:00,
2013-03-13 22:22:00,33.0,15.0,-100.00,SSW,200,5.0,9.0,48,0.00,,,0.00,0.000000,,2013-03-14 04:22:00,
2013-03-13 22:32:00,33.0,15.0,-100.00,SSW,200,5.0,9.0,48,0.00,,,0.00,0.000000,,2013-03-14 04:32:00,
2013-03-13 22:42:00,33.0,15.0,-100.00,SSW,200,5.0,9.0,48,0.00,,,0.00,0.000000,,2013-03-14 04:42:00,
2013-03-13 23:12:00,32.0,15.0,-100.00,SW,224,4.0,10.0,50,0.00,,,0.00,0.000000,,2013-03-14 05:12:00,
2013-03-13 23:22:00,32.0,15.0,-100.00,SW,224,4.0,10.0,50,0.00,,,0.00,0.000000,,2013-03-14 05:22:00,
2013-03-13 23:33:00,32.0,15.0,-100.00,SW,224,4.0,10.0,50,0.00,,,0.00,0.000000,,2013-03-14 05:33:00,
2013-03-13 23:42:00,32.0,15.0,-100.00,SW,224,4.0,10.0,50,0.00,,,0.00,0.000000,,2013-03-14 05:42:00,